Unalaska Airport Unalaska US
ICAO: PADU
IATA:
Category: Medium
Scheduled Services:

Elevation: 22 ft
TransAlt. 18000 ft.

Airport Communications:
AWOS 3:125.8
ANCHORAGE CNTR:121.4
CTAF:122.6
COLD BAY RDO:122.6
DUTCH WX:129.5

PADU Zoom In..

Runways:

(A) RW 12 length 4100 ft width 100 ft
---- / hdg 122

(B) RW 30 length 4100 ft width 100 ft
---- / hdg 302

Location; PADU
Day. 10 / Time. 10.56 Zulu
* Altimeter: 30.20
* Temperature: 03° c. 37.4°f.
* Wind from: 150° Speed 11 kn.
Dewpoint: -03° c.
Visibility: 10 Statute Miles.
Clouds: Overcast 3200 ft.

PADU 101056Z 15011KT 10SM OVC032 03/M03 A3020 RMK AO2 SLP232 T00281033


Wind From 150°
Speed 11 kn.

 
 
jpsmedia worldairports.se 2020   terms of use